Time;durP1;ratioP1;P1;durP2;ratioP2;P2;SDS_P1;SDS_P2;PMS_P1;PMS_P2;Temp;Humidity;BMP_temperature;BMP_pressure;BME280_temperature;BME280_humidity;BME280_pressure;Samples;Min_cycle;Max_cycle;Signal;HPM_P1;HPM_P2
2020/12/06 00:00:39;;;;;;;6.18;3.88;;;;;;;;;;10277088;28;20025;-64
2020/12/06 00:05:37;;;;;;;7.63;4.17;;;;;;;;;;10269890;28;20065;-65
2020/12/06 00:10:34;;;;;;;7.07;3.23;;;;;;;;;;10278474;28;20046;-64
2020/12/06 00:15:31;;;;;;;9.23;5.40;;;;;;;;;;10279626;28;20133;-64
2020/12/06 00:20:29;;;;;;;7.27;3.03;;;;;;;;;;10269521;28;20402;-64
2020/12/06 00:25:26;;;;;;;5.90;2.80;;;;;;;;;;10267479;28;20036;-63
2020/12/06 00:30:24;;;;;;;5.37;3.60;;;;;;;;;;10277526;28;20061;-63
2020/12/06 00:35:21;;;;;;;5.73;3.57;;;;;;;;;;10290090;28;20280;-64
2020/12/06 00:40:18;;;;;;;6.93;4.03;;;;;;;;;;10296611;28;20072;-63
2020/12/06 00:45:16;;;;;;;2.13;1.93;;;;;;;;;;10278331;28;20038;-63
2020/12/06 00:50:14;;;;;;;9.27;4.13;;;;;;;;;;10281103;28;20041;-65
2020/12/06 00:55:12;;;;;;;2.47;2.20;;;;;;;;;;10256983;28;20034;-64
2020/12/06 01:00:10;;;;;;;2.90;2.50;;;;;;;;;;10281173;28;20045;-64
2020/12/06 01:05:08;;;;;;;2.42;2.05;;;;;;;;;;10277256;28;20033;-63
2020/12/06 01:10:06;;;;;;;5.07;2.50;;;;;;;;;;10268164;28;20474;-65
2020/12/06 01:15:07;;;;;;;3.33;2.40;;;;;;;;;;10282632;28;20072;-65
2020/12/06 01:20:05;;;;;;;8.68;4.85;;;;;;;;;;10293190;28;20607;-63
2020/12/06 01:25:04;;;;;;;6.72;3.30;;;;;;;;;;10279897;28;20033;-65
2020/12/06 01:30:04;;;;;;;4.78;3.95;;;;;;;;;;10284268;28;20515;-64
2020/12/06 01:35:02;;;;;;;2.60;2.33;;;;;;;;;;10295022;28;20156;-64
2020/12/06 01:39:59;;;;;;;4.63;2.80;;;;;;;;;;10285476;28;20065;-63
2020/12/06 01:44:59;;;;;;;3.73;2.77;;;;;;;;;;10280644;28;20514;-65
2020/12/06 01:49:57;;;;;;;3.00;2.55;;;;;;;;;;10278454;28;20388;-65
2020/12/06 01:54:55;;;;;;;7.32;3.78;;;;;;;;;;10292925;28;20033;-65
2020/12/06 01:59:53;;;;;;;3.13;1.95;;;;;;;;;;10271908;28;20046;-63
2020/12/06 02:04:51;;;;;;;8.73;4.70;;;;;;;;;;10278509;28;20038;-64
2020/12/06 02:09:48;;;;;;;;;;;;;;;;;;10270314;28;20041;-63
2020/12/06 02:14:46;;;;;;;5.95;4.18;;;;;;;;;;10273126;28;19963;-64
2020/12/06 02:19:43;;;;;;;9.90;4.37;;;;;;;;;;10275572;28;20053;-64
2020/12/06 02:24:41;;;;;;;4.40;3.03;;;;;;;;;;10283637;28;20041;-64
2020/12/06 02:29:38;;;;;;;4.53;3.90;;;;;;;;;;10292979;28;20503;-65
2020/12/06 02:34:36;;;;;;;3.23;2.93;;;;;;;;;;10243245;28;20056;-64
2020/12/06 02:39:33;;;;;;;6.38;3.40;;;;;;;;;;10274094;28;20091;-65
2020/12/06 02:44:31;;;;;;;4.60;4.07;;;;;;;;;;10261602;28;20034;-63
2020/12/06 02:49:28;;;;;;;6.87;4.30;;;;;;;;;;10260842;28;20037;-64
2020/12/06 02:54:26;;;;;;;6.80;4.17;;;;;;;;;;10266026;28;20041;-64
2020/12/06 02:59:24;;;;;;;5.25;3.92;;;;;;;;;;10281576;28;20067;-64
2020/12/06 03:04:21;;;;;;;8.17;3.80;;;;;;;;;;10284792;28;20048;-63
2020/12/06 03:09:18;;;;;;;3.83;2.73;;;;;;;;;;10277708;28;20042;-63
2020/12/06 03:14:16;;;;;;;10.00;3.27;;;;;;;;;;10282875;28;20037;-65
2020/12/06 03:19:13;;;;;;;11.83;6.60;;;;;;;;;;10281984;28;20489;-64
2020/12/06 03:24:10;;;;;;;9.27;3.70;;;;;;;;;;10286793;28;20033;-65
2020/12/06 03:29:08;;;;;;;2.13;1.90;;;;;;;;;;10269224;28;20064;-64
2020/12/06 03:34:05;;;;;;;4.80;4.10;;;;;;;;;;10267031;28;20164;-63
2020/12/06 03:39:02;;;;;;;6.77;4.60;;;;;;;;;;10283298;28;20040;-63
2020/12/06 03:44:00;;;;;;;5.57;3.73;;;;;;;;;;10284702;28;20662;-64
2020/12/06 03:48:57;;;;;;;3.70;2.27;;;;;;;;;;10289714;28;20415;-64
2020/12/06 03:53:54;;;;;;;10.23;5.20;;;;;;;;;;10292527;28;20033;-64
2020/12/06 03:58:52;;;;;;;14.13;7.83;;;;;;;;;;10272511;28;20041;-64
2020/12/06 04:03:49;;;;;;;18.67;8.27;;;;;;;;;;10280877;28;20039;-63
2020/12/06 04:08:46;;;;;;;13.90;8.43;;;;;;;;;;10272216;28;20040;-64
2020/12/06 04:13:44;;;;;;;12.90;6.10;;;;;;;;;;10284958;28;20103;-65
2020/12/06 04:18:41;;;;;;;8.27;3.67;;;;;;;;;;10289044;28;20041;-64
2020/12/06 04:23:39;;;;;;;9.30;5.80;;;;;;;;;;10273099;28;20041;-64
2020/12/06 04:28:37;;;;;;;5.35;4.85;;;;;;;;;;10285140;28;20093;-64
2020/12/06 04:33:34;;;;;;;13.70;6.53;;;;;;;;;;10294683;28;20043;-64
2020/12/06 04:38:31;;;;;;;6.57;3.30;;;;;;;;;;10286730;28;20566;-65
2020/12/06 04:43:29;;;;;;;5.13;4.63;;;;;;;;;;10287782;28;20058;-63
2020/12/06 04:48:34;;;;;;;4.30;3.20;;;;;;;;;;10280794;28;20103;-64
2020/12/06 04:53:39;;;;;;;10.15;5.03;;;;;;;;;;10290729;28;20041;-64
2020/12/06 04:58:38;;;;;;;5.50;3.75;;;;;;;;;;10275885;28;20041;-61
2020/12/06 05:03:36;;;;;;;8.18;4.03;;;;;;;;;;10285655;28;20034;-64
2020/12/06 05:08:34;;;;;;;3.70;2.90;;;;;;;;;;10273322;28;20029;-64
2020/12/06 05:13:31;;;;;;;6.53;3.13;;;;;;;;;;10276164;28;20024;-64
2020/12/06 05:18:30;;;;;;;6.27;4.07;;;;;;;;;;10286953;28;20034;-64
2020/12/06 05:23:28;;;;;;;5.10;3.70;;;;;;;;;;10296498;28;20364;-64
2020/12/06 05:28:25;;;;;;;3.07;2.40;;;;;;;;;;10290499;28;20052;-64
2020/12/06 05:33:23;;;;;;;4.68;4.28;;;;;;;;;;10267285;28;20515;-64
2020/12/06 05:38:20;;;;;;;4.37;2.23;;;;;;;;;;10285429;28;20041;-63
2020/12/06 05:43:17;;;;;;;4.57;2.53;;;;;;;;;;10279885;28;20399;-63
2020/12/06 05:48:15;;;;;;;8.47;4.27;;;;;;;;;;10295034;28;20079;-64
2020/12/06 05:53:12;;;;;;;5.80;2.17;;;;;;;;;;10285898;28;20053;-64
2020/12/06 05:58:15;;;;;;;2.90;2.03;;;;;;;;;;10275624;28;20041;-63
2020/12/06 06:03:12;;;;;;;7.85;4.47;;;;;;;;;;10263249;28;20049;-62
2020/12/06 06:08:10;;;;;;;7.50;3.63;;;;;;;;;;10286096;28;20499;-64
2020/12/06 06:13:08;;;;;;;9.07;3.72;;;;;;;;;;10281241;28;20045;-63
2020/12/06 06:18:06;;;;;;;3.40;1.98;;;;;;;;;;10287952;28;20040;-64
2020/12/06 06:23:03;;;;;;;9.20;4.87;;;;;;;;;;10289748;28;20041;-62
2020/12/06 06:28:02;;;;;;;9.73;5.23;;;;;;;;;;10293210;28;20091;-63
2020/12/06 06:33:11;;;;;;;9.48;5.22;;;;;;;;;;10291755;28;20044;-64
2020/12/06 06:38:08;;;;;;;;;;;;;;;;;;10289318;28;20385;-64
2020/12/06 06:43:05;;;;;;;16.20;7.50;;;;;;;;;;10274432;28;19913;-62
2020/12/06 06:48:05;;;;;;;12.47;5.33;;;;;;;;;;10287337;28;20050;-63
2020/12/06 06:53:02;;;;;;;9.02;4.05;;;;;;;;;;10286762;28;20072;-63
2020/12/06 06:58:00;;;;;;;7.63;4.10;;;;;;;;;;10285797;28;20744;-63
2020/12/06 07:02:58;;;;;;;5.70;4.75;;;;;;;;;;10298592;28;20021;-62
2020/12/06 07:07:55;;;;;;;9.80;4.83;;;;;;;;;;10289877;28;20045;-62
2020/12/06 07:12:56;;;;;;;12.23;5.87;;;;;;;;;;10281022;28;20049;-63
2020/12/06 07:17:54;;;;;;;5.07;3.20;;;;;;;;;;10272221;28;20045;-64
2020/12/06 07:22:52;;;;;;;2.83;2.45;;;;;;;;;;10291126;28;20025;-62
2020/12/06 07:27:50;;;;;;;2.63;1.98;;;;;;;;;;10296700;28;20041;-63
2020/12/06 07:32:47;;;;;;;18.27;8.27;;;;;;;;;;10249833;28;20045;-64
2020/12/06 07:37:45;;;;;;;11.33;6.07;;;;;;;;;;10288974;28;20143;-64
2020/12/06 07:42:43;;;;;;;16.75;9.05;;;;;;;;;;10279203;28;20553;-64
2020/12/06 07:47:40;;;;;;;17.50;8.57;;;;;;;;;;10283014;28;20049;-64
2020/12/06 07:52:39;;;;;;;19.47;10.90;;;;;;;;;;10283866;28;20029;-65
2020/12/06 07:57:40;;;;;;;16.77;7.85;;;;;;;;;;10279388;28;20033;-64
2020/12/06 08:02:38;;;;;;;25.85;10.70;;;;;;;;;;10277172;28;20033;-63
2020/12/06 08:07:41;;;;;;;28.30;12.55;;;;;;;;;;10275615;28;20044;-64
2020/12/06 08:12:39;;;;;;;27.73;13.85;;;;;;;;;;10280897;28;20565;-64
2020/12/06 08:17:41;;;;;;;30.95;14.52;;;;;;;;;;10274705;28;20561;-63
2020/12/06 08:22:57;;;;;;;32.15;13.48;;;;;;;;;;10279267;28;20025;-65
2020/12/06 08:27:55;;;;;;;26.63;13.48;;;;;;;;;;10268703;28;20034;-62
2020/12/06 08:32:53;;;;;;;29.20;13.57;;;;;;;;;;10273987;28;20508;-64
2020/12/06 08:37:50;;;;;;;35.10;14.93;;;;;;;;;;10273564;28;20501;-65
2020/12/06 08:42:55;;;;;;;30.63;15.03;;;;;;;;;;10255860;28;20519;-63
2020/12/06 08:47:52;;;;;;;24.85;12.75;;;;;;;;;;10264053;28;20525;-63
2020/12/06 08:52:55;;;;;;;32.07;13.97;;;;;;;;;;10271450;28;20404;-64
2020/12/06 08:57:54;;;;;;;32.58;13.20;;;;;;;;;;10259785;28;20146;-63
2020/12/06 09:02:54;;;;;;;28.38;13.70;;;;;;;;;;10279430;28;20380;-64
2020/12/06 09:07:52;;;;;;;34.92;15.00;;;;;;;;;;10283861;28;20041;-64
2020/12/06 09:12:49;;;;;;;32.63;15.63;;;;;;;;;;10278312;28;20030;-64
2020/12/06 09:17:46;;;;;;;32.93;15.13;;;;;;;;;;10284718;28;20076;-64
2020/12/06 09:22:44;;;;;;;37.43;17.27;;;;;;;;;;10270120;28;20034;-64
2020/12/06 09:27:41;;;;;;;36.63;16.80;;;;;;;;;;10280485;28;20037;-64
2020/12/06 09:32:38;;;;;;;41.43;19.27;;;;;;;;;;10279408;28;20076;-65
2020/12/06 09:37:36;;;;;;;40.17;17.97;;;;;;;;;;10282058;28;20128;-62
2020/12/06 09:42:33;;;;;;;30.37;15.17;;;;;;;;;;10286342;28;20115;-64
2020/12/06 09:47:30;;;;;;;39.77;15.87;;;;;;;;;;10286361;28;20037;-63
2020/12/06 09:52:28;;;;;;;42.40;14.83;;;;;;;;;;10286901;28;20034;-64
2020/12/06 09:57:25;;;;;;;31.57;14.37;;;;;;;;;;10280269;28;20099;-64
2020/12/06 10:02:23;;;;;;;34.27;15.13;;;;;;;;;;10285002;28;20102;-63
2020/12/06 10:07:21;;;;;;;38.07;16.90;;;;;;;;;;10259129;28;20038;-64
2020/12/06 10:12:18;;;;;;;36.85;16.50;;;;;;;;;;10266005;28;20992;-64
2020/12/06 10:17:15;;;;;;;42.80;17.70;;;;;;;;;;10270914;28;20867;-61
2020/12/06 10:22:13;;;;;;;41.73;17.60;;;;;;;;;;10283994;28;20042;-63
2020/12/06 10:27:10;;;;;;;33.70;15.70;;;;;;;;;;10268091;28;20513;-64
2020/12/06 10:32:09;;;;;;;46.17;18.30;;;;;;;;;;10280903;28;20049;-64
2020/12/06 10:37:07;;;;;;;35.60;15.52;;;;;;;;;;10268264;28;20037;-62
2020/12/06 10:42:04;;;;;;;34.47;15.27;;;;;;;;;;10295714;28;20029;-63
2020/12/06 10:47:02;;;;;;;40.90;16.60;;;;;;;;;;10289948;28;20037;-64
2020/12/06 10:51:59;;;;;;;40.30;17.03;;;;;;;;;;10282383;28;20048;-63
2020/12/06 10:56:56;;;;;;;40.37;16.60;;;;;;;;;;10284667;28;20500;-63
2020/12/06 11:01:54;;;;;;;38.10;16.23;;;;;;;;;;10286879;28;20029;-63
2020/12/06 11:06:51;;;;;;;45.10;18.03;;;;;;;;;;10273887;28;20125;-63
2020/12/06 11:11:51;;;;;;;36.30;16.30;;;;;;;;;;10262802;28;20578;-64
2020/12/06 11:16:50;;;;;;;36.95;15.80;;;;;;;;;;10270465;28;20046;-63
2020/12/06 11:21:50;;;;;;;31.83;14.73;;;;;;;;;;10281769;28;20041;-63
2020/12/06 11:26:47;;;;;;;19.80;8.95;;;;;;;;;;10264106;28;20336;-63
2020/12/06 11:31:46;;;;;;;27.33;12.33;;;;;;;;;;10284439;28;20132;-64
2020/12/06 11:36:46;;;;;;;26.50;12.90;;;;;;;;;;10268075;28;20156;-64
2020/12/06 11:41:43;;;;;;;25.20;11.45;;;;;;;;;;10247869;28;20069;-64
2020/12/06 11:46:44;;;;;;;38.17;16.10;;;;;;;;;;10273497;28;20499;-64
2020/12/06 11:51:41;;;;;;;36.40;14.32;;;;;;;;;;10270112;28;20499;-63
2020/12/06 11:56:39;;;;;;;35.53;15.27;;;;;;;;;;10276367;28;20033;-64
2020/12/06 12:01:36;;;;;;;38.93;16.43;;;;;;;;;;10280924;28;20025;-64
2020/12/06 12:06:33;;;;;;;39.80;15.27;;;;;;;;;;10272013;28;20044;-64
2020/12/06 12:11:30;;;;;;;47.03;17.87;;;;;;;;;;10281364;28;20040;-64
2020/12/06 12:16:28;;;;;;;41.67;15.93;;;;;;;;;;10246309;28;20029;-64
2020/12/06 12:21:25;;;;;;;46.20;16.93;;;;;;;;;;10275191;28;20121;-64
2020/12/06 12:26:22;;;;;;;40.07;15.37;;;;;;;;;;10271476;28;20034;-63
2020/12/06 12:31:20;;;;;;;41.87;16.63;;;;;;;;;;10270501;28;20072;-63
2020/12/06 12:36:17;;;;;;;52.23;18.93;;;;;;;;;;10265954;28;20033;-64
2020/12/06 12:41:15;;;;;;;42.53;17.33;;;;;;;;;;10270449;28;20407;-63
2020/12/06 12:46:12;;;;;;;42.53;16.17;;;;;;;;;;10264877;28;20040;-65
2020/12/06 12:51:10;;;;;;;46.90;19.60;;;;;;;;;;10283224;28;20026;-65
2020/12/06 12:56:07;;;;;;;41.93;17.27;;;;;;;;;;10278794;28;20022;-63
2020/12/06 13:01:05;;;;;;;45.13;18.07;;;;;;;;;;10274909;28;20102;-63
2020/12/06 13:06:03;;;;;;;49.00;17.83;;;;;;;;;;10273793;28;20048;-63
2020/12/06 13:11:00;;;;;;;47.23;17.00;;;;;;;;;;10273634;28;20184;-64
2020/12/06 13:15:58;;;;;;;50.30;18.43;;;;;;;;;;10273309;28;20559;-62
2020/12/06 13:20:55;;;;;;;45.33;18.70;;;;;;;;;;10268150;28;20033;-63
2020/12/06 13:25:52;;;;;;;51.47;18.60;;;;;;;;;;10258531;28;20156;-64
2020/12/06 13:30:50;;;;;;;56.17;21.60;;;;;;;;;;10274473;28;20044;-63
2020/12/06 13:35:47;;;;;;;44.50;17.30;;;;;;;;;;10263627;28;20183;-63
2020/12/06 13:40:45;;;;;;;15.60;5.60;;;;;;;;;;10247222;28;20041;-64
2020/12/06 13:45:43;;;;;;;46.03;18.40;;;;;;;;;;10275440;28;20093;-63
2020/12/06 13:50:41;;;;;;;47.90;18.08;;;;;;;;;;10282382;28;20033;-63
2020/12/06 13:55:38;;;;;;;39.40;15.10;;;;;;;;;;10291410;28;20041;-64
2020/12/06 14:00:35;;;;;;;30.00;10.23;;;;;;;;;;10277512;28;20034;-63
2020/12/06 14:05:33;;;;;;;38.87;14.97;;;;;;;;;;10258661;28;20397;-62
2020/12/06 14:10:30;;;;;;;39.97;12.27;;;;;;;;;;10263632;28;20080;-63
2020/12/06 14:15:28;;;;;;;50.67;15.83;;;;;;;;;;10272976;28;20049;-63
2020/12/06 14:20:25;;;;;;;52.50;18.07;;;;;;;;;;10278404;28;20042;-62
2020/12/06 14:25:22;;;;;;;53.70;18.47;;;;;;;;;;10276259;28;20029;-63
2020/12/06 14:30:20;;;;;;;41.67;16.93;;;;;;;;;;10285514;28;20055;-63
2020/12/06 14:35:17;;;;;;;46.07;16.33;;;;;;;;;;10274544;28;20072;-63
2020/12/06 14:40:14;;;;;;;48.40;15.83;;;;;;;;;;10282551;28;20184;-63
2020/12/06 14:45:12;;;;;;;57.07;17.43;;;;;;;;;;10279872;28;20040;-64
2020/12/06 14:50:11;;;;;;;58.08;21.15;;;;;;;;;;10279260;28;20045;-63
2020/12/06 14:55:10;;;;;;;44.47;18.08;;;;;;;;;;10272887;28;20037;-64
2020/12/06 15:00:08;;;;;;;44.92;15.73;;;;;;;;;;10288306;28;20142;-64
2020/12/06 15:05:05;;;;;;;40.93;10.60;;;;;;;;;;10278513;28;20049;-64
2020/12/06 15:10:03;;;;;;;42.80;15.37;;;;;;;;;;10270230;28;20040;-64
2020/12/06 15:15:00;;;;;;;47.63;16.50;;;;;;;;;;10281856;28;20029;-64
2020/12/06 15:19:58;;;;;;;45.57;16.50;;;;;;;;;;10272407;28;20040;-64
2020/12/06 15:24:55;;;;;;;35.40;14.23;;;;;;;;;;10267787;28;20818;-64
2020/12/06 15:29:52;;;;;;;32.70;12.43;;;;;;;;;;10286401;28;20041;-63
2020/12/06 15:34:50;;;;;;;55.30;18.43;;;;;;;;;;10281087;28;20052;-64
2020/12/06 15:39:47;;;;;;;51.17;17.23;;;;;;;;;;10269971;28;20034;-66
2020/12/06 15:44:45;;;;;;;44.53;16.80;;;;;;;;;;10268303;28;20151;-63
2020/12/06 15:49:42;;;;;;;30.67;11.70;;;;;;;;;;10257521;28;20573;-65
2020/12/06 15:59:53;;;;;;;43.70;16.02;;;;;;;;;;10673249;23;20042;-64
2020/12/06 16:04:50;;;;;;;27.13;11.30;;;;;;;;;;10231586;28;20038;-64
2020/12/06 16:09:48;;;;;;;42.07;15.97;;;;;;;;;;10243777;28;20030;-64
2020/12/06 16:14:45;;;;;;;34.17;13.60;;;;;;;;;;10248458;28;20453;-64
2020/12/06 16:19:43;;;;;;;37.87;15.40;;;;;;;;;;10232862;28;20126;-64
2020/12/06 16:24:40;;;;;;;30.07;12.07;;;;;;;;;;10230867;28;20038;-64
2020/12/06 16:29:37;;;;;;;31.33;11.17;;;;;;;;;;10235284;28;20045;-65
2020/12/06 16:34:35;;;;;;;67.87;21.30;;;;;;;;;;10237744;28;20050;-63
2020/12/06 16:39:33;;;;;;;64.85;20.38;;;;;;;;;;10236272;28;20629;-63
2020/12/06 16:44:30;;;;;;;39.70;16.07;;;;;;;;;;10207781;28;20034;-63
2020/12/06 16:49:27;;;;;;;33.40;14.07;;;;;;;;;;10229955;28;20088;-63
2020/12/06 16:54:25;;;;;;;32.90;11.53;;;;;;;;;;10247739;28;20088;-64
2020/12/06 16:59:22;;;;;;;35.27;13.40;;;;;;;;;;10220493;28;20389;-62
2020/12/06 17:04:20;;;;;;;47.00;14.13;;;;;;;;;;10238855;28;20044;-63
2020/12/06 17:09:17;;;;;;;31.60;11.57;;;;;;;;;;10231706;28;20595;-64
2020/12/06 17:14:14;;;;;;;34.53;12.73;;;;;;;;;;10239787;28;20457;-64
2020/12/06 17:19:12;;;;;;;45.20;17.47;;;;;;;;;;10230033;28;20046;-64
2020/12/06 17:24:09;;;;;;;47.13;17.13;;;;;;;;;;10235452;28;20769;-64
2020/12/06 17:29:09;;;;;;;50.07;17.77;;;;;;;;;;10241996;28;20145;-64
2020/12/06 17:34:06;;;;;;;48.30;17.95;;;;;;;;;;10219577;28;20042;-63
2020/12/06 17:39:04;;;;;;;42.73;16.63;;;;;;;;;;10225364;28;20550;-65
2020/12/06 17:44:02;;;;;;;42.85;16.33;;;;;;;;;;10223267;28;20034;-66
2020/12/06 17:48:59;;;;;;;42.40;16.17;;;;;;;;;;10215758;28;20044;-67
2020/12/06 17:53:57;;;;;;;47.33;15.77;;;;;;;;;;10190963;28;20050;-63
2020/12/06 17:58:54;;;;;;;46.00;16.73;;;;;;;;;;10225688;28;20103;-65
2020/12/06 18:03:51;;;;;;;43.00;17.13;;;;;;;;;;10237119;28;20038;-64
2020/12/06 18:08:49;;;;;;;51.17;16.73;;;;;;;;;;10240019;28;20037;-65
2020/12/06 18:13:46;;;;;;;44.75;15.45;;;;;;;;;;10225299;28;20124;-65
2020/12/06 18:18:43;;;;;;;47.17;16.03;;;;;;;;;;10240595;28;20043;-65
2020/12/06 18:23:41;;;;;;;42.37;16.77;;;;;;;;;;10232801;28;20049;-67
2020/12/06 18:28:38;;;;;;;53.97;20.03;;;;;;;;;;10225852;28;20038;-65
2020/12/06 18:33:44;;;;;;;50.47;19.40;;;;;;;;;;10233309;28;20033;-66
2020/12/06 18:38:42;;;;;;;53.70;22.35;;;;;;;;;;10233185;28;20058;-65
2020/12/06 18:43:40;;;;;;;59.23;21.03;;;;;;;;;;10212353;28;20046;-67
2020/12/06 18:48:38;;;;;;;60.22;23.92;;;;;;;;;;10215784;28;20038;-68
2020/12/06 18:53:36;;;;;;;44.75;20.23;;;;;;;;;;10227089;28;20144;-68
2020/12/06 18:58:34;;;;;;;49.93;17.53;;;;;;;;;;10214424;28;20068;-69
2020/12/06 19:03:31;;;;;;;;;;;;;;;;;;10237671;28;20045;-68
2020/12/06 19:08:29;;;;;;;40.10;18.27;;;;;;;;;;10245323;28;19921;-64
2020/12/06 19:13:27;;;;;;;53.27;21.77;;;;;;;;;;10225653;28;20034;-67
2020/12/06 19:18:25;;;;;;;46.22;18.35;;;;;;;;;;10235303;28;20041;-67
2020/12/06 19:23:22;;;;;;;40.73;17.23;;;;;;;;;;10236845;28;20406;-66
2020/12/06 19:28:20;;;;;;;54.77;19.10;;;;;;;;;;10241343;28;20037;-65
2020/12/06 19:33:17;;;;;;;54.63;22.27;;;;;;;;;;10218804;28;20045;-66
2020/12/06 19:38:14;;;;;;;50.77;21.60;;;;;;;;;;10207767;28;20396;-67
2020/12/06 19:43:12;;;;;;;61.63;21.57;;;;;;;;;;10254858;28;20149;-66
2020/12/06 19:48:09;;;;;;;51.03;20.80;;;;;;;;;;10232669;28;20049;-67
2020/12/06 19:53:07;;;;;;;60.07;21.70;;;;;;;;;;10252449;28;20038;-66
2020/12/06 19:58:06;;;;;;;60.47;23.00;;;;;;;;;;10231478;28;20070;-66
2020/12/06 20:03:04;;;;;;;50.72;20.80;;;;;;;;;;10228166;28;20052;-65
2020/12/06 20:08:01;;;;;;;56.43;24.30;;;;;;;;;;10255806;28;20136;-65
2020/12/06 20:12:58;;;;;;;57.40;22.33;;;;;;;;;;10235669;28;20066;-66
2020/12/06 20:17:56;;;;;;;48.70;21.43;;;;;;;;;;10231974;28;20045;-66
2020/12/06 20:22:53;;;;;;;51.57;21.63;;;;;;;;;;10219277;28;20108;-66
2020/12/06 20:27:50;;;;;;;46.30;20.90;;;;;;;;;;10219837;28;20123;-65
2020/12/06 20:32:48;;;;;;;52.93;22.40;;;;;;;;;;10245180;28;20042;-65
2020/12/06 20:37:48;;;;;;;33.20;15.47;;;;;;;;;;10244000;28;20046;-65
2020/12/06 20:42:46;;;;;;;41.20;17.80;;;;;;;;;;10244696;28;20088;-65
2020/12/06 20:47:43;;;;;;;52.23;22.37;;;;;;;;;;10233190;28;20055;-66
2020/12/06 20:52:40;;;;;;;54.87;20.07;;;;;;;;;;10239862;28;20061;-65
2020/12/06 20:57:38;;;;;;;39.70;16.23;;;;;;;;;;10226753;28;20080;-66
2020/12/06 21:02:35;;;;;;;35.30;14.87;;;;;;;;;;10238020;28;20061;-65
2020/12/06 21:07:33;;;;;;;49.23;19.57;;;;;;;;;;10243730;28;20041;-65
2020/12/06 21:12:30;;;;;;;24.23;11.00;;;;;;;;;;10235900;28;20471;-65
2020/12/06 21:17:31;;;;;;;29.93;12.43;;;;;;;;;;10238141;28;20280;-66
2020/12/06 21:22:28;;;;;;;29.08;10.82;;;;;;;;;;10238648;28;25273;-65
2020/12/06 21:27:26;;;;;;;43.60;16.53;;;;;;;;;;10245849;28;20084;-65
2020/12/06 21:32:23;;;;;;;28.40;13.50;;;;;;;;;;10234167;28;20446;-65
2020/12/06 21:37:20;;;;;;;48.90;18.43;;;;;;;;;;10240836;28;20116;-65
2020/12/06 21:42:18;;;;;;;46.07;18.00;;;;;;;;;;10213492;28;20124;-66
2020/12/06 21:47:15;;;;;;;35.57;13.73;;;;;;;;;;10247270;28;20055;-65
2020/12/06 21:52:12;;;;;;;23.33;11.10;;;;;;;;;;10247111;28;20751;-65
2020/12/06 21:57:10;;;;;;;43.63;16.77;;;;;;;;;;10232080;28;20101;-65
2020/12/06 22:02:08;;;;;;;38.30;16.43;;;;;;;;;;10244978;28;20136;-65
2020/12/06 22:07:05;;;;;;;33.42;13.70;;;;;;;;;;10240468;28;20034;-67
2020/12/06 22:12:04;;;;;;;30.00;15.97;;;;;;;;;;10242897;28;20488;-67
2020/12/06 22:17:05;;;;;;;31.00;15.00;;;;;;;;;;10241333;28;20389;-67
2020/12/06 22:22:03;;;;;;;36.15;14.10;;;;;;;;;;10243676;28;20037;-67
2020/12/06 22:27:00;;;;;;;34.83;14.60;;;;;;;;;;10231518;28;20025;-67
2020/12/06 22:31:58;;;;;;;34.23;15.73;;;;;;;;;;10220182;28;21468;-67
2020/12/06 22:36:56;;;;;;;28.40;15.07;;;;;;;;;;10215464;28;20133;-67
2020/12/06 22:41:57;;;;;;;32.38;14.68;;;;;;;;;;10238991;28;20558;-67
2020/12/06 22:46:54;;;;;;;39.13;14.38;;;;;;;;;;10231970;28;20034;-68
2020/12/06 22:51:53;;;;;;;36.73;14.47;;;;;;;;;;10223173;28;20660;-67
2020/12/06 22:56:51;;;;;;;23.98;9.93;;;;;;;;;;10223034;28;20415;-67
2020/12/06 23:01:48;;;;;;;33.13;12.50;;;;;;;;;;10218377;28;20061;-67
2020/12/06 23:06:45;;;;;;;29.93;13.80;;;;;;;;;;10222268;28;20079;-66
2020/12/06 23:11:43;;;;;;;20.50;10.97;;;;;;;;;;10243453;28;20042;-66
2020/12/06 23:16:40;;;;;;;36.47;15.30;;;;;;;;;;10239568;28;21327;-63
2020/12/06 23:21:37;;;;;;;37.40;12.60;;;;;;;;;;10228617;28;20479;-65
2020/12/06 23:26:35;;;;;;;50.93;18.03;;;;;;;;;;10245163;28;20172;-66
2020/12/06 23:31:33;;;;;;;24.00;10.95;;;;;;;;;;10243696;28;20046;-65
2020/12/06 23:36:30;;;;;;;19.03;7.80;;;;;;;;;;10234905;28;20077;-66
2020/12/06 23:41:28;;;;;;;29.43;13.57;;;;;;;;;;10243718;28;20042;-66
2020/12/06 23:46:25;;;;;;;36.80;14.83;;;;;;;;;;10230678;28;20037;-66
2020/12/06 23:51:23;;;;;;;23.30;11.10;;;;;;;;;;10234603;28;20455;-67
2020/12/06 23:56:20;;;;;;;18.87;8.00;;;;;;;;;;10242857;28;20030;-63
